sensor_id;sensor_type;location;lat;lon;timestamp;pressure;altitude;pressure_sealevel;temperature;humidity
6343;BME280;3204;42.698;23.298;2023-05-03T00:00:52;95219.38;;;14.16;47.00
6343;BME280;3204;42.698;23.298;2023-05-03T00:03:18;95221.44;;;14.19;46.74
6343;BME280;3204;42.698;23.298;2023-05-03T00:05:47;95216.19;;;14.05;47.07
6343;BME280;3204;42.698;23.298;2023-05-03T00:08:12;95227.56;;;13.99;47.03
6343;BME280;3204;42.698;23.298;2023-05-03T00:10:38;95220.19;;;13.99;47.15
6343;BME280;3204;42.698;23.298;2023-05-03T00:13:03;95221.31;;;13.98;46.83
6343;BME280;3204;42.698;23.298;2023-05-03T00:15:29;95219.22;;;13.87;47.32
6343;BME280;3204;42.698;23.298;2023-05-03T00:17:54;95226.66;;;13.78;47.47
6343;BME280;3204;42.698;23.298;2023-05-03T00:20:20;95219.09;;;13.83;47.24
6343;BME280;3204;42.698;23.298;2023-05-03T00:22:46;95218.31;;;13.83;48.17
6343;BME280;3204;42.698;23.298;2023-05-03T00:25:12;95216.06;;;13.76;48.90
6343;BME280;3204;42.698;23.298;2023-05-03T00:27:37;95211.72;;;13.75;48.65
6343;BME280;3204;42.698;23.298;2023-05-03T00:30:04;95219.88;;;13.67;48.90
6343;BME280;3204;42.698;23.298;2023-05-03T00:32:29;95223.28;;;13.64;48.77
6343;BME280;3204;42.698;23.298;2023-05-03T00:34:55;95224.22;;;13.68;48.76
6343;BME280;3204;42.698;23.298;2023-05-03T00:37:22;95226.31;;;13.54;49.07
6343;BME280;3204;42.698;23.298;2023-05-03T00:39:48;95233.69;;;13.45;49.56
6343;BME280;3204;42.698;23.298;2023-05-03T00:42:14;95238.47;;;13.31;49.52
6343;BME280;3204;42.698;23.298;2023-05-03T00:44:39;95236.22;;;13.33;49.76
6343;BME280;3204;42.698;23.298;2023-05-03T00:47:05;95238.94;;;13.41;49.76
6343;BME280;3204;42.698;23.298;2023-05-03T00:49:32;95236.56;;;13.40;49.92
6343;BME280;3204;42.698;23.298;2023-05-03T00:51:58;95244.75;;;13.40;49.80
6343;BME280;3204;42.698;23.298;2023-05-03T00:54:26;95245.34;;;13.20;49.93
6343;BME280;3204;42.698;23.298;2023-05-03T00:56:52;95248.56;;;13.30;49.83
6343;BME280;3204;42.698;23.298;2023-05-03T00:59:17;95239.09;;;13.28;50.09
6343;BME280;3204;42.698;23.298;2023-05-03T01:01:47;95229.19;;;13.32;49.25
6343;BME280;3204;42.698;23.298;2023-05-03T01:04:13;95237.50;;;13.27;49.78
6343;BME280;3204;42.698;23.298;2023-05-03T01:17:11;95207.97;;;13.03;50.16
6343;BME280;3204;42.698;23.298;2023-05-03T01:19:47;95219.31;;;12.97;50.22
6343;BME280;3204;42.698;23.298;2023-05-03T01:22:29;95208.44;;;12.97;50.36
6343;BME280;3204;42.698;23.298;2023-05-03T01:25:04;95203.66;;;13.02;49.86
6343;BME280;3204;42.698;23.298;2023-05-03T01:27:31;95192.75;;;13.02;50.23
6343;BME280;3204;42.698;23.298;2023-05-03T01:29:57;95203.44;;;12.90;50.10
6343;BME280;3204;42.698;23.298;2023-05-03T01:32:31;95194.63;;;12.85;50.18
6343;BME280;3204;42.698;23.298;2023-05-03T01:35:05;95176.78;;;12.70;50.55
6343;BME280;3204;42.698;23.298;2023-05-03T01:37:33;95194.91;;;12.75;50.43
6343;BME280;3204;42.698;23.298;2023-05-03T01:40:02;95199.25;;;12.76;50.69
6343;BME280;3204;42.698;23.298;2023-05-03T01:42:29;95191.22;;;12.71;50.52
6343;BME280;3204;42.698;23.298;2023-05-03T01:44:57;95187.06;;;12.82;50.33
6343;BME280;3204;42.698;23.298;2023-05-03T01:47:24;95176.84;;;12.79;50.41
6343;BME280;3204;42.698;23.298;2023-05-03T01:49:50;95169.59;;;12.74;50.47
6343;BME280;3204;42.698;23.298;2023-05-03T01:52:16;95170.75;;;12.82;50.42
6343;BME280;3204;42.698;23.298;2023-05-03T01:54:41;95172.69;;;12.90;50.24
6343;BME280;3204;42.698;23.298;2023-05-03T01:57:07;95170.28;;;12.88;50.28
6343;BME280;3204;42.698;23.298;2023-05-03T01:59:32;95170.59;;;12.87;50.03
6343;BME280;3204;42.698;23.298;2023-05-03T02:01:57;95162.25;;;12.83;50.45
6343;BME280;3204;42.698;23.298;2023-05-03T02:04:23;95166.13;;;12.91;50.11
6343;BME280;3204;42.698;23.298;2023-05-03T02:06:48;95158.34;;;12.98;50.36
6343;BME280;3204;42.698;23.298;2023-05-03T02:09:14;95158.91;;;12.86;50.39
6343;BME280;3204;42.698;23.298;2023-05-03T02:11:39;95165.75;;;12.67;50.71
6343;BME280;3204;42.698;23.298;2023-05-03T02:14:05;95164.63;;;12.68;51.05
6343;BME280;3204;42.698;23.298;2023-05-03T02:16:30;95161.91;;;12.68;51.05
6343;BME280;3204;42.698;23.298;2023-05-03T02:18:55;95160.97;;;12.64;51.49
6343;BME280;3204;42.698;23.298;2023-05-03T02:21:24;95155.16;;;12.65;51.37
6343;BME280;3204;42.698;23.298;2023-05-03T02:23:50;95159.31;;;12.63;51.65
6343;BME280;3204;42.698;23.298;2023-05-03T02:26:16;95163.84;;;12.67;51.47
6343;BME280;3204;42.698;23.298;2023-05-03T02:28:41;95162.56;;;12.65;51.71
6343;BME280;3204;42.698;23.298;2023-05-03T02:31:07;95170.06;;;12.68;51.62
6343;BME280;3204;42.698;23.298;2023-05-03T02:33:32;95162.06;;;12.63;51.58
6343;BME280;3204;42.698;23.298;2023-05-03T02:35:58;95150.69;;;12.52;51.78
6343;BME280;3204;42.698;23.298;2023-05-03T02:38:23;95152.91;;;12.50;52.10
6343;BME280;3204;42.698;23.298;2023-05-03T02:40:49;95169.44;;;12.71;51.88
6343;BME280;3204;42.698;23.298;2023-05-03T02:43:14;95179.03;;;12.60;51.83
6343;BME280;3204;42.698;23.298;2023-05-03T02:45:42;95175.03;;;12.57;51.91
6343;BME280;3204;42.698;23.298;2023-05-03T02:48:07;95172.53;;;12.39;52.35
6343;BME280;3204;42.698;23.298;2023-05-03T02:50:34;95171.31;;;12.45;52.23
6343;BME280;3204;42.698;23.298;2023-05-03T02:52:59;95184.22;;;12.39;52.50
6343;BME280;3204;42.698;23.298;2023-05-03T02:55:25;95170.13;;;12.37;52.60
6343;BME280;3204;42.698;23.298;2023-05-03T02:57:50;95170.47;;;12.36;52.38
6343;BME280;3204;42.698;23.298;2023-05-03T03:00:16;95167.53;;;12.32;52.47
6343;BME280;3204;42.698;23.298;2023-05-03T03:02:41;95176.03;;;12.31;52.41
6343;BME280;3204;42.698;23.298;2023-05-03T03:05:07;95178.94;;;12.34;52.86
6343;BME280;3204;42.698;23.298;2023-05-03T03:07:33;95187.53;;;12.28;52.61
6343;BME280;3204;42.698;23.298;2023-05-03T03:09:59;95193.16;;;12.31;52.68
6343;BME280;3204;42.698;23.298;2023-05-03T03:12:25;95186.53;;;12.15;52.86
6343;BME280;3204;42.698;23.298;2023-05-03T03:14:52;95183.75;;;12.07;53.16
6343;BME280;3204;42.698;23.298;2023-05-03T03:17:17;95184.59;;;12.16;53.22
6343;BME280;3204;42.698;23.298;2023-05-03T03:19:42;95183.63;;;12.12;53.31
6343;BME280;3204;42.698;23.298;2023-05-03T03:22:08;95180.63;;;12.22;53.35
6343;BME280;3204;42.698;23.298;2023-05-03T03:24:34;95182.84;;;12.20;53.07
6343;BME280;3204;42.698;23.298;2023-05-03T03:26:59;95183.38;;;12.22;53.22
6343;BME280;3204;42.698;23.298;2023-05-03T03:29:25;95187.97;;;12.21;53.17
6343;BME280;3204;42.698;23.298;2023-05-03T03:31:52;95176.28;;;12.21;53.35
6343;BME280;3204;42.698;23.298;2023-05-03T03:34:17;95189.94;;;11.99;53.65
6343;BME280;3204;42.698;23.298;2023-05-03T03:36:43;95204.16;;;11.96;53.95
6343;BME280;3204;42.698;23.298;2023-05-03T03:39:08;95213.78;;;12.02;53.86
6343;BME280;3204;42.698;23.298;2023-05-03T03:41:34;95208.84;;;12.04;53.89
6343;BME280;3204;42.698;23.298;2023-05-03T03:44:00;95216.38;;;12.07;53.48
6343;BME280;3204;42.698;23.298;2023-05-03T03:46:25;95220.28;;;12.14;53.54
6343;BME280;3204;42.698;23.298;2023-05-03T03:48:51;95215.16;;;12.13;53.76
6343;BME280;3204;42.698;23.298;2023-05-03T03:51:16;95213.53;;;12.12;54.13
6343;BME280;3204;42.698;23.298;2023-05-03T03:53:42;95205.63;;;12.02;54.00
6343;BME280;3204;42.698;23.298;2023-05-03T03:56:07;95214.84;;;12.14;53.90
6343;BME280;3204;42.698;23.298;2023-05-03T03:58:33;95222.47;;;12.12;53.88
6343;BME280;3204;42.698;23.298;2023-05-03T04:00:59;95222.47;;;12.12;53.98
6343;BME280;3204;42.698;23.298;2023-05-03T04:03:25;95227.91;;;12.12;54.02
6343;BME280;3204;42.698;23.298;2023-05-03T04:05:51;95235.81;;;12.22;53.59
6343;BME280;3204;42.698;23.298;2023-05-03T04:08:16;95230.06;;;12.24;53.05
6343;BME280;3204;42.698;23.298;2023-05-03T04:10:42;95238.53;;;12.22;53.51
6343;BME280;3204;42.698;23.298;2023-05-03T04:13:08;95237.63;;;12.05;53.67
6343;BME280;3204;42.698;23.298;2023-05-03T04:15:33;95239.06;;;12.02;53.61
6343;BME280;3204;42.698;23.298;2023-05-03T04:17:59;95240.75;;;11.90;53.70
6343;BME280;3204;42.698;23.298;2023-05-03T04:20:25;95245.34;;;11.89;53.99
6343;BME280;3204;42.698;23.298;2023-05-03T04:22:50;95255.97;;;11.99;53.89
6343;BME280;3204;42.698;23.298;2023-05-03T04:25:15;95254.13;;;12.08;54.04
6343;BME280;3204;42.698;23.298;2023-05-03T04:27:42;95249.81;;;12.07;53.87
6343;BME280;3204;42.698;23.298;2023-05-03T04:30:08;95267.41;;;12.10;53.68
6343;BME280;3204;42.698;23.298;2023-05-03T04:32:34;95263.38;;;12.29;53.95
6343;BME280;3204;42.698;23.298;2023-05-03T04:35:03;95276.00;;;12.25;53.56
6343;BME280;3204;42.698;23.298;2023-05-03T04:37:32;95267.22;;;12.28;53.76
6343;BME280;3204;42.698;23.298;2023-05-03T04:39:57;95283.00;;;12.18;53.81
6343;BME280;3204;42.698;23.298;2023-05-03T04:42:23;95281.13;;;12.05;54.17
6343;BME280;3204;42.698;23.298;2023-05-03T04:44:48;95287.19;;;12.02;54.67
6343;BME280;3204;42.698;23.298;2023-05-03T04:47:14;95288.38;;;12.09;54.76
6343;BME280;3204;42.698;23.298;2023-05-03T04:49:39;95293.59;;;12.06;54.83
6343;BME280;3204;42.698;23.298;2023-05-03T04:52:05;95309.44;;;12.04;54.89
6343;BME280;3204;42.698;23.298;2023-05-03T04:54:30;95299.81;;;11.98;55.49
6343;BME280;3204;42.698;23.298;2023-05-03T04:56:56;95304.13;;;11.99;55.12
6343;BME280;3204;42.698;23.298;2023-05-03T04:59:22;95322.72;;;12.05;55.54
6343;BME280;3204;42.698;23.298;2023-05-03T05:01:47;95316.78;;;11.81;55.88
6343;BME280;3204;42.698;23.298;2023-05-03T05:04:13;95311.78;;;11.97;55.71
6343;BME280;3204;42.698;23.298;2023-05-03T05:06:38;95316.03;;;11.89;55.69
6343;BME280;3204;42.698;23.298;2023-05-03T05:09:05;95316.78;;;11.81;55.88
6343;BME280;3204;42.698;23.298;2023-05-03T05:11:31;95327.97;;;11.80;56.18
6343;BME280;3204;42.698;23.298;2023-05-03T05:13:57;95329.56;;;11.81;57.01
6343;BME280;3204;42.698;23.298;2023-05-03T05:16:22;95327.38;;;11.69;58.25
6343;BME280;3204;42.698;23.298;2023-05-03T05:18:48;95325.19;;;11.71;58.93
6343;BME280;3204;42.698;23.298;2023-05-03T05:21:13;95329.38;;;11.64;59.74
6343;BME280;3204;42.698;23.298;2023-05-03T05:23:39;95331.41;;;11.58;60.42
6343;BME280;3204;42.698;23.298;2023-05-03T05:26:04;95328.56;;;11.77;60.92
6343;BME280;3204;42.698;23.298;2023-05-03T05:28:30;95325.34;;;11.75;59.80
6343;BME280;3204;42.698;23.298;2023-05-03T05:30:56;95328.75;;;11.80;61.41
6343;BME280;3204;42.698;23.298;2023-05-03T05:33:22;95318.19;;;11.79;61.56
6343;BME280;3204;42.698;23.298;2023-05-03T05:35:48;95316.66;;;11.86;61.40
6343;BME280;3204;42.698;23.298;2023-05-03T05:38:15;95323.28;;;11.94;59.83
6343;BME280;3204;42.698;23.298;2023-05-03T05:40:41;95327.91;;;11.93;59.25
6343;BME280;3204;42.698;23.298;2023-05-03T05:43:07;95324.41;;;11.93;59.27
6343;BME280;3204;42.698;23.298;2023-05-03T05:45:32;95318.31;;;11.96;59.55
6343;BME280;3204;42.698;23.298;2023-05-03T05:47:58;95329.72;;;11.98;59.08
6343;BME280;3204;42.698;23.298;2023-05-03T05:50:24;95323.59;;;12.14;58.94
6343;BME280;3204;42.698;23.298;2023-05-03T05:52:50;95330.25;;;12.30;61.15
6343;BME280;3204;42.698;23.298;2023-05-03T05:55:17;95332.03;;;12.35;57.62
6343;BME280;3204;42.698;23.298;2023-05-03T05:57:42;95322.31;;;12.42;57.80
6343;BME280;3204;42.698;23.298;2023-05-03T06:00:08;95333.03;;;12.39;57.54
6343;BME280;3204;42.698;23.298;2023-05-03T06:02:39;95326.22;;;12.06;57.96
6343;BME280;3204;42.698;23.298;2023-05-03T06:05:05;95331.75;;;12.14;58.55
6343;BME280;3204;42.698;23.298;2023-05-03T06:07:31;95327.78;;;11.98;59.05
6343;BME280;3204;42.698;23.298;2023-05-03T06:09:56;95329.47;;;12.08;59.58
6343;BME280;3204;42.698;23.298;2023-05-03T06:12:22;95333.06;;;12.17;59.45
6343;BME280;3204;42.698;23.298;2023-05-03T06:14:47;95335.41;;;12.32;59.06
6343;BME280;3204;42.698;23.298;2023-05-03T06:17:13;95335.22;;;12.28;59.45
6343;BME280;3204;42.698;23.298;2023-05-03T06:19:39;95330.81;;;12.19;58.82
6343;BME280;3204;42.698;23.298;2023-05-03T06:22:04;95328.09;;;12.19;59.43
6343;BME280;3204;42.698;23.298;2023-05-03T06:24:31;95341.09;;;12.22;60.41
6343;BME280;3204;42.698;23.298;2023-05-03T06:26:57;95329.78;;;12.28;61.13
6343;BME280;3204;42.698;23.298;2023-05-03T06:29:25;95326.47;;;12.40;59.46
6343;BME280;3204;42.698;23.298;2023-05-03T06:31:50;95324.00;;;12.30;60.22
6343;BME280;3204;42.698;23.298;2023-05-03T06:44:54;95291.88;;;12.32;59.29
6343;BME280;3204;42.698;23.298;2023-05-03T06:47:19;95299.81;;;12.50;60.46
6343;BME280;3204;42.698;23.298;2023-05-03T06:49:46;95287.78;;;12.43;59.49
6343;BME280;3204;42.698;23.298;2023-05-03T06:52:11;95289.22;;;12.49;59.93
6343;BME280;3204;42.698;23.298;2023-05-03T06:54:37;95293.78;;;12.62;60.31
6343;BME280;3204;42.698;23.298;2023-05-03T06:57:02;95288.75;;;12.47;59.46
6343;BME280;3204;42.698;23.298;2023-05-03T06:59:29;95278.16;;;12.37;61.17
6343;BME280;3204;42.698;23.298;2023-05-03T07:01:54;95278.41;;;12.57;60.94
6343;BME280;3204;42.698;23.298;2023-05-03T07:04:20;95296.34;;;12.58;60.15
6343;BME280;3204;42.698;23.298;2023-05-03T07:06:45;95290.16;;;12.66;58.61
6343;BME280;3204;42.698;23.298;2023-05-03T07:09:11;95273.28;;;12.56;58.50
6343;BME280;3204;42.698;23.298;2023-05-03T07:11:37;95276.88;;;12.73;58.70
6343;BME280;3204;42.698;23.298;2023-05-03T07:14:04;95283.50;;;12.89;57.83
6343;BME280;3204;42.698;23.298;2023-05-03T07:16:30;95289.34;;;12.66;58.49
6343;BME280;3204;42.698;23.298;2023-05-03T07:18:55;95289.31;;;12.57;58.50
6343;BME280;3204;42.698;23.298;2023-05-03T07:21:20;95288.00;;;12.55;58.68
6343;BME280;3204;42.698;23.298;2023-05-03T07:23:46;95277.16;;;12.63;58.86
6343;BME280;3204;42.698;23.298;2023-05-03T07:26:11;95263.63;;;12.80;58.40
6343;BME280;3204;42.698;23.298;2023-05-03T07:28:37;95270.09;;;12.93;58.84
6343;BME280;3204;42.698;23.298;2023-05-03T07:31:02;95266.84;;;12.91;58.93
6343;BME280;3204;42.698;23.298;2023-05-03T07:33:33;95279.44;;;13.09;58.51
6343;BME280;3204;42.698;23.298;2023-05-03T07:36:02;95285.50;;;13.06;58.46
6343;BME280;3204;42.698;23.298;2023-05-03T07:38:27;95272.31;;;12.91;59.16
6343;BME280;3204;42.698;23.298;2023-05-03T07:40:52;95273.47;;;12.98;59.21
6343;BME280;3204;42.698;23.298;2023-05-03T07:43:18;95278.00;;;13.03;59.26
6343;BME280;3204;42.698;23.298;2023-05-03T07:45:45;95280.28;;;13.26;59.27
6343;BME280;3204;42.698;23.298;2023-05-03T07:48:10;95275.00;;;13.30;59.68
6343;BME280;3204;42.698;23.298;2023-05-03T07:50:36;95272.09;;;13.09;59.63
6343;BME280;3204;42.698;23.298;2023-05-03T07:53:01;95285.22;;;13.16;59.94
6343;BME280;3204;42.698;23.298;2023-05-03T07:55:27;95283.47;;;13.20;59.84
6343;BME280;3204;42.698;23.298;2023-05-03T07:57:54;95291.00;;;13.14;60.12
6343;BME280;3204;42.698;23.298;2023-05-03T08:00:23;95279.31;;;13.22;59.50
6343;BME280;3204;42.698;23.298;2023-05-03T08:02:49;95284.66;;;13.36;60.54
6343;BME280;3204;42.698;23.298;2023-05-03T08:05:14;95286.72;;;13.39;60.12
6343;BME280;3204;42.698;23.298;2023-05-03T08:07:40;95279.34;;;13.39;60.14
6343;BME280;3204;42.698;23.298;2023-05-03T08:10:06;95289.06;;;13.15;61.06
6343;BME280;3204;42.698;23.298;2023-05-03T08:12:32;95292.75;;;13.10;61.32
6343;BME280;3204;42.698;23.298;2023-05-03T08:14:57;95302.34;;;12.99;61.34
6343;BME280;3204;42.698;23.298;2023-05-03T08:17:23;95291.66;;;12.89;62.29
6343;BME280;3204;42.698;23.298;2023-05-03T08:19:49;95298.91;;;12.94;61.84
6343;BME280;3204;42.698;23.298;2023-05-03T08:22:16;95292.44;;;13.12;62.41
6343;BME280;3204;42.698;23.298;2023-05-03T08:24:42;95293.91;;;13.35;61.97
6343;BME280;3204;42.698;23.298;2023-05-03T08:27:08;95287.56;;;13.65;61.05
6343;BME280;3204;42.698;23.298;2023-05-03T08:29:35;95294.78;;;13.69;60.85
6343;BME280;3204;42.698;23.298;2023-05-03T08:32:02;95299.28;;;13.91;60.49
6343;BME280;3204;42.698;23.298;2023-05-03T08:34:28;95291.41;;;14.15;59.56
6343;BME280;3204;42.698;23.298;2023-05-03T08:36:54;95294.78;;;14.12;60.02
6343;BME280;3204;42.698;23.298;2023-05-03T08:39:20;95305.50;;;14.59;58.62
6343;BME280;3204;42.698;23.298;2023-05-03T08:41:46;95294.81;;;14.92;58.41
6343;BME280;3204;42.698;23.298;2023-05-03T08:44:19;95285.06;;;15.49;57.21
6343;BME280;3204;42.698;23.298;2023-05-03T08:46:46;95283.56;;;15.80;55.67
6343;BME280;3204;42.698;23.298;2023-05-03T08:49:12;95285.19;;;16.14;54.97
6343;BME280;3204;42.698;23.298;2023-05-03T08:51:40;95294.19;;;16.35;54.11
6343;BME280;3204;42.698;23.298;2023-05-03T08:54:11;95294.38;;;16.83;53.78
6343;BME280;3204;42.698;23.298;2023-05-03T08:56:42;95286.72;;;16.77;52.71
6343;BME280;3204;42.698;23.298;2023-05-03T08:59:09;95286.25;;;17.43;52.26
6343;BME280;3204;42.698;23.298;2023-05-03T09:01:36;95296.91;;;16.88;52.73
6343;BME280;3204;42.698;23.298;2023-05-03T09:04:02;95299.03;;;16.83;53.07
6343;BME280;3204;42.698;23.298;2023-05-03T09:06:28;95306.34;;;16.78;52.42
6343;BME280;3204;42.698;23.298;2023-05-03T09:08:54;95309.78;;;16.22;53.64
6343;BME280;3204;42.698;23.298;2023-05-03T09:11:24;95302.88;;;16.37;53.48
6343;BME280;3204;42.698;23.298;2023-05-03T09:13:51;95299.41;;;16.28;53.97
6343;BME280;3204;42.698;23.298;2023-05-03T09:16:24;95283.06;;;16.19;54.74
6343;BME280;3204;42.698;23.298;2023-05-03T09:18:59;95275.69;;;16.32;54.67
6343;BME280;3204;42.698;23.298;2023-05-03T09:21:25;95275.63;;;16.40;54.90
6343;BME280;3204;42.698;23.298;2023-05-03T09:23:50;95286.31;;;16.54;55.17
6343;BME280;3204;42.698;23.298;2023-05-03T09:26:32;95275.09;;;16.47;54.85
6343;BME280;3204;42.698;23.298;2023-05-03T09:28:59;95269.88;;;16.54;54.52
6343;BME280;3204;42.698;23.298;2023-05-03T09:31:27;95275.03;;;16.35;55.10
6343;BME280;3204;42.698;23.298;2023-05-03T09:33:53;95256.81;;;16.39;55.11
6343;BME280;3204;42.698;23.298;2023-05-03T09:36:19;95263.03;;;16.27;55.08
6343;BME280;3204;42.698;23.298;2023-05-03T09:38:44;95258.97;;;15.92;55.30
6343;BME280;3204;42.698;23.298;2023-05-03T09:41:10;95241.50;;;16.38;55.24
6343;BME280;3204;42.698;23.298;2023-05-03T09:43:47;95239.16;;;17.29;54.07
6343;BME280;3204;42.698;23.298;2023-05-03T09:46:13;95234.00;;;18.31;51.96
6343;BME280;3204;42.698;23.298;2023-05-03T09:48:39;95237.19;;;18.05;51.80
6343;BME280;3204;42.698;23.298;2023-05-03T09:51:06;95236.50;;;17.57;52.67
6343;BME280;3204;42.698;23.298;2023-05-03T09:53:32;95231.66;;;17.78;52.02
6343;BME280;3204;42.698;23.298;2023-05-03T09:56:02;95238.22;;;18.40;51.31
6343;BME280;3204;42.698;23.298;2023-05-03T09:58:28;95233.56;;;19.18;50.01
6343;BME280;3204;42.698;23.298;2023-05-03T10:00:55;95237.59;;;19.36;49.13
6343;BME280;3204;42.698;23.298;2023-05-03T10:03:38;95234.84;;;19.36;49.13
6343;BME280;3204;42.698;23.298;2023-05-03T10:06:05;95230.03;;;19.18;48.86
6343;BME280;3204;42.698;23.298;2023-05-03T10:08:52;95229.75;;;18.61;50.13
6343;BME280;3204;42.698;23.298;2023-05-03T10:11:19;95228.56;;;18.46;50.51
6343;BME280;3204;42.698;23.298;2023-05-03T10:13:48;95221.66;;;17.97;51.48
6343;BME280;3204;42.698;23.298;2023-05-03T10:16:20;95228.00;;;18.13;51.16
6343;BME280;3204;42.698;23.298;2023-05-03T10:18:58;95219.91;;;18.75;50.42
6343;BME280;3204;42.698;23.298;2023-05-03T10:24:09;95211.66;;;20.06;48.63
6343;BME280;3204;42.698;23.298;2023-05-03T10:26:39;95211.97;;;20.39;46.64
6343;BME280;3204;42.698;23.298;2023-05-03T10:29:04;95196.50;;;19.78;48.16
6343;BME280;3204;42.698;23.298;2023-05-03T10:31:47;95187.03;;;19.25;48.96
6343;BME280;3204;42.698;23.298;2023-05-03T10:34:20;95191.13;;;18.85;50.42
6343;BME280;3204;42.698;23.298;2023-05-03T10:36:47;95186.56;;;18.46;50.42
6343;BME280;3204;42.698;23.298;2023-05-03T10:39:15;95188.34;;;18.26;51.64
6343;BME280;3204;42.698;23.298;2023-05-03T10:41:42;95177.78;;;18.13;51.82
6343;BME280;3204;42.698;23.298;2023-05-03T10:44:37;95184.06;;;18.13;52.13
6343;BME280;3204;42.698;23.298;2023-05-03T10:47:12;95179.84;;;18.43;52.02
6343;BME280;3204;42.698;23.298;2023-05-03T10:49:37;95171.38;;;18.36;51.93
6343;BME280;3204;42.698;23.298;2023-05-03T10:55:21;95182.31;;;18.21;51.93
6343;BME280;3204;42.698;23.298;2023-05-03T10:57:49;95166.38;;;18.26;51.43
6343;BME280;3204;42.698;23.298;2023-05-03T11:00:37;95172.91;;;18.49;51.49
6343;BME280;3204;42.698;23.298;2023-05-03T11:05:43;95176.19;;;18.12;52.48
6343;BME280;3204;42.698;23.298;2023-05-03T11:08:15;95165.41;;;18.19;52.38
6343;BME280;3204;42.698;23.298;2023-05-03T11:10:45;95169.38;;;18.21;52.57
6343;BME280;3204;42.698;23.298;2023-05-03T11:13:11;95172.13;;;18.21;52.38
6343;BME280;3204;42.698;23.298;2023-05-03T11:15:37;95186.88;;;18.01;53.02
6343;BME280;3204;42.698;23.298;2023-05-03T11:18:05;95160.72;;;17.92;53.09
6343;BME280;3204;42.698;23.298;2023-05-03T11:20:31;95158.22;;;17.87;53.61
6343;BME280;3204;42.698;23.298;2023-05-03T11:22:57;95172.09;;;17.78;53.90
6343;BME280;3204;42.698;23.298;2023-05-03T11:25:23;95162.53;;;17.72;54.36
6343;BME280;3204;42.698;23.298;2023-05-03T11:27:49;95149.38;;;17.93;54.27
6343;BME280;3204;42.698;23.298;2023-05-03T11:30:14;95149.63;;;18.16;54.09
6343;BME280;3204;42.698;23.298;2023-05-03T11:32:43;95147.16;;;18.26;54.18
6343;BME280;3204;42.698;23.298;2023-05-03T11:35:09;95144.72;;;18.09;53.64
6343;BME280;3204;42.698;23.298;2023-05-03T11:37:35;95153.22;;;18.04;53.99
6343;BME280;3204;42.698;23.298;2023-05-03T11:40:00;95153.31;;;17.80;54.79
6343;BME280;3204;42.698;23.298;2023-05-03T11:42:26;95147.75;;;17.77;55.01
6343;BME280;3204;42.698;23.298;2023-05-03T11:44:53;95136.94;;;17.56;55.77
6343;BME280;3204;42.698;23.298;2023-05-03T11:47:19;95134.97;;;17.96;55.08
6343;BME280;3204;42.698;23.298;2023-05-03T11:49:52;95133.25;;;18.19;54.47
6343;BME280;3204;42.698;23.298;2023-05-03T11:52:25;95126.47;;;18.75;53.74
6343;BME280;3204;42.698;23.298;2023-05-03T11:54:51;95133.31;;;18.81;53.12
6343;BME280;3204;42.698;23.298;2023-05-03T11:57:17;95125.16;;;18.38;53.28
6343;BME280;3204;42.698;23.298;2023-05-03T11:59:43;95123.94;;;18.24;53.93
6343;BME280;3204;42.698;23.298;2023-05-03T12:02:13;95122.19;;;18.31;54.23
6343;BME280;3204;42.698;23.298;2023-05-03T12:04:42;95116.47;;;18.67;53.64
6343;BME280;3204;42.698;23.298;2023-05-03T12:07:09;95108.03;;;18.91;52.89
6343;BME280;3204;42.698;23.298;2023-05-03T12:09:35;95118.34;;;19.13;52.84
6343;BME280;3204;42.698;23.298;2023-05-03T12:12:01;95115.19;;;18.80;52.89
6343;BME280;3204;42.698;23.298;2023-05-03T12:14:28;95117.38;;;18.71;53.12
6343;BME280;3204;42.698;23.298;2023-05-03T12:16:53;95126.50;;;18.44;53.41
6343;BME280;3204;42.698;23.298;2023-05-03T12:19:29;95115.09;;;18.30;53.97
6343;BME280;3204;42.698;23.298;2023-05-03T12:21:55;95111.91;;;18.13;54.71
6343;BME280;3204;42.698;23.298;2023-05-03T12:24:20;95121.44;;;18.03;54.36
6343;BME280;3204;42.698;23.298;2023-05-03T12:26:50;95115.88;;;17.72;55.07
6343;BME280;3204;42.698;23.298;2023-05-03T12:29:16;95099.44;;;17.60;55.43
6343;BME280;3204;42.698;23.298;2023-05-03T12:31:42;95109.66;;;17.75;55.09
6343;BME280;3204;42.698;23.298;2023-05-03T12:34:08;95105.28;;;17.59;55.57
6343;BME280;3204;42.698;23.298;2023-05-03T12:36:34;95105.44;;;17.50;55.82
6343;BME280;3204;42.698;23.298;2023-05-03T12:39:01;95114.16;;;17.40;56.41
6343;BME280;3204;42.698;23.298;2023-05-03T12:41:27;95098.13;;;16.91;57.06
6343;BME280;3204;42.698;23.298;2023-05-03T12:43:56;95115.38;;;16.67;58.51
6343;BME280;3204;42.698;23.298;2023-05-03T12:46:22;95106.47;;;16.58;59.07
6343;BME280;3204;42.698;23.298;2023-05-03T12:48:48;95103.06;;;16.49;59.44
6343;BME280;3204;42.698;23.298;2023-05-03T12:51:14;95096.78;;;16.61;59.41
6343;BME280;3204;42.698;23.298;2023-05-03T12:53:40;95092.31;;;16.56;59.46
6343;BME280;3204;42.698;23.298;2023-05-03T12:56:06;95095.41;;;16.54;59.48
6343;BME280;3204;42.698;23.298;2023-05-03T12:58:31;95098.25;;;16.70;59.40
6343;BME280;3204;42.698;23.298;2023-05-03T13:00:57;95091.84;;;16.66;59.38
6343;BME280;3204;42.698;23.298;2023-05-03T13:03:23;95085.38;;;16.47;59.99
6343;BME280;3204;42.698;23.298;2023-05-03T13:05:49;95092.66;;;16.42;60.58
6343;BME280;3204;42.698;23.298;2023-05-03T13:08:14;95090.59;;;16.39;61.49
6343;BME280;3204;42.698;23.298;2023-05-03T13:10:41;95081.44;;;16.35;62.32
6343;BME280;3204;42.698;23.298;2023-05-03T13:13:06;95096.38;;;16.26;62.72
6343;BME280;3204;42.698;23.298;2023-05-03T13:15:33;95097.75;;;16.20;63.55
6343;BME280;3204;42.698;23.298;2023-05-03T13:17:59;95094.75;;;16.13;64.18
6343;BME280;3204;42.698;23.298;2023-05-03T13:20:26;95102.28;;;16.04;64.72
6343;BME280;3204;42.698;23.298;2023-05-03T13:22:52;95114.78;;;15.93;65.16
6343;BME280;3204;42.698;23.298;2023-05-03T13:25:17;95103.69;;;15.77;65.78
6343;BME280;3204;42.698;23.298;2023-05-03T13:27:42;95118.09;;;15.54;66.88
6343;BME280;3204;42.698;23.298;2023-05-03T13:30:08;95110.44;;;15.59;67.22
6343;BME280;3204;42.698;23.298;2023-05-03T13:32:34;95106.59;;;15.60;66.76
6343;BME280;3204;42.698;23.298;2023-05-03T13:35:00;95105.34;;;15.58;67.68
6343;BME280;3204;42.698;23.298;2023-05-03T13:37:26;95113.88;;;15.56;68.41